Time;durP1;ratioP1;P1;durP2;ratioP2;P2;SDS_P1;SDS_P2;PMS_P1;PMS_P2;Temp;Humidity;BMP_temperature;BMP_pressure;BME280_temperature;BME280_humidity;BME280_pressure;Samples;Min_cycle;Max_cycle;Signal;HPM_P1;HPM_P2
2023/10/30 00:01:04;;;;;;;;;;;;;;;11.96;100.00;100184.41;5053364;28;913;-59
2023/10/30 00:03:31;;;;;;;;;;;;;;;11.95;100.00;100180.84;5053218;28;787;-59
2023/10/30 00:05:57;;;;;;;;;;;;;;;12.02;100.00;100171.72;5053629;28;795;-59
2023/10/30 00:08:24;;;;;;;;;;;;;;;12.08;100.00;100181.19;5053051;28;818;-59
2023/10/30 00:10:51;;;;;;;;;;;;;;;12.11;100.00;100182.34;5068514;28;871;-59
2023/10/30 00:13:18;;;;;;;;;;;;;;;12.10;100.00;100178.78;5053088;28;955;-59
2023/10/30 00:15:44;;;;;;;;;;;;;;;12.08;100.00;100178.41;5052931;28;1877;-59
2023/10/30 00:18:11;;;;;;;;;;;;;;;12.07;100.00;100170.50;5053023;28;807;-59
2023/10/30 00:20:38;;;;;;;;;;;;;;;12.07;100.00;100173.25;5053024;28;946;-59
2023/10/30 00:23:04;;;;;;;;;;;;;;;12.09;100.00;100173.66;5052726;28;1400;-59
2023/10/30 00:25:31;;;;;;;;;;;;;;;12.09;100.00;100176.41;5052930;28;836;-59
2023/10/30 00:28:00;;;;;;;;;;;;;;;12.17;100.00;100169.66;5052881;28;873;-59
2023/10/30 00:30:27;;;;;;;;;;;;;;;12.14;100.00;100168.47;5052659;28;880;-59
2023/10/30 00:32:53;;;;;;;;;;;;;;;12.12;100.00;100164.50;5052777;28;850;-59
2023/10/30 00:35:20;;;;;;;;;;;;;;;12.09;100.00;100163.34;5052675;28;1917;-59
2023/10/30 00:37:47;;;;;;;;;;;;;;;12.08;100.00;100161.78;5052516;28;809;-59
2023/10/30 00:40:12;;;;;;;;;;;;;;;12.02;100.00;100163.41;5052616;28;830;-59
2023/10/30 00:42:38;;;;;;;;;;;;;;;11.95;100.00;100157.88;5052580;28;942;-59
2023/10/30 00:45:05;;;;;;;;;;;;;;;11.91;100.00;100160.69;5052785;28;802;-59
2023/10/30 00:47:34;;;;;;;;;;;;;;;12.00;100.00;100163.78;5052391;28;955;-59
2023/10/30 00:50:01;;;;;;;;;;;;;;;12.04;100.00;100155.47;5052538;28;827;-59
2023/10/30 00:52:27;;;;;;;;;;;;;;;12.01;100.00;100146.00;5052319;28;855;-59
2023/10/30 00:54:54;;;;;;;;;;;;;;;11.98;100.00;100152.31;5052281;28;1894;-59
2023/10/30 00:57:21;;;;;;;;;;;;;;;11.93;100.00;100157.50;5052355;28;902;-59
2023/10/30 00:59:47;;;;;;;;;;;;;;;11.87;100.00;100159.09;5052543;28;876;-59
2023/10/30 01:02:13;;;;;;;;;;;;;;;11.87;100.00;100156.31;5052212;28;814;-59
2023/10/30 01:04:40;;;;;;;;;;;;;;;11.93;100.00;100154.75;5052180;28;846;-59
2023/10/30 01:07:06;;;;;;;;;;;;;;;12.00;100.00;100151.94;5051991;28;854;-59
2023/10/30 01:09:33;;;;;;;;;;;;;;;12.02;100.00;100155.88;5050848;28;1152;-59
2023/10/30 01:11:59;;;;;;;;;;;;;;;12.04;100.00;100155.47;5051709;28;782;-59
2023/10/30 01:14:26;;;;;;;;;;;;;;;12.09;100.00;100154.25;5052014;28;1960;-59
2023/10/30 01:16:53;;;;;;;;;;;;;;;12.11;100.00;100154.63;5052063;28;829;-59
2023/10/30 01:19:20;;;;;;;;;;;;;;;11.86;100.00;100149.97;5051940;28;806;-59
2023/10/30 01:21:46;;;;;;;;;;;;;;;11.67;100.00;100150.44;5052367;28;943;-59
2023/10/30 01:24:13;;;;;;;;;;;;;;;11.72;100.00;100148.06;5051758;28;1328;-59
2023/10/30 01:26:40;;;;;;;;;;;;;;;11.93;100.00;100151.97;5051986;28;932;-59
2023/10/30 01:29:06;;;;;;;;;;;;;;;11.96;100.00;100151.16;5051860;28;806;-59
2023/10/30 01:31:33;;;;;;;;;;;;;;;11.87;100.00;100150.78;5067273;28;1199;-59
2023/10/30 01:34:00;;;;;;;;;;;;;;;11.74;100.00;100153.22;5051718;28;1906;-59
2023/10/30 01:36:26;;;;;;;;;;;;;;;11.59;100.00;100156.03;5067210;28;1389;-59
2023/10/30 01:38:53;;;;;;;;;;;;;;;11.54;100.00;100159.22;5051998;28;795;-59
2023/10/30 01:41:20;;;;;;;;;;;;;;;11.52;100.00;100150.53;5051790;28;827;-59
2023/10/30 01:43:47;;;;;;;;;;;;;;;11.58;100.00;100157.19;5051739;28;807;-59
2023/10/30 01:46:13;;;;;;;;;;;;;;;11.55;100.00;100155.25;5051636;28;822;-59
2023/10/30 01:48:41;;;;;;;;;;;;;;;11.59;100.00;100161.56;5051988;28;861;-59
2023/10/30 01:51:07;;;;;;;;;;;;;;;11.59;100.00;100156.03;5051643;28;901;-59
2023/10/30 01:53:34;;;;;;;;;;;;;;;11.58;100.00;100159.19;5051715;28;858;-59
2023/10/30 01:56:02;;;;;;;;;;;;;;;11.57;100.00;100160.38;5051396;28;1890;-59
2023/10/30 01:58:29;;;;;;;;;;;;;;;11.59;100.00;100167.09;5051777;28;818;-59
2023/10/30 02:00:56;;;;;;;;;;;;;;;11.64;100.00;100163.13;5051785;28;834;-59
2023/10/30 02:03:23;;;;;;;;;;;;;;;11.64;100.00;100174.97;5051565;28;872;-59
2023/10/30 02:08:52;;;;;;;;;;;;;;;11.61;100.00;100170.25;5051463;28;681;-59
2023/10/30 02:11:19;;;;;;;;;;;;;;;11.57;100.00;100174.22;5051577;28;845;-59
2023/10/30 02:13:55;;;;;;;;;;;;;;;11.54;100.00;100177.78;5051526;28;818;-59
2023/10/30 02:16:21;;;;;;;;;;;;;;;11.53;100.00;100179.78;5051495;28;841;-59
2023/10/30 02:18:48;;;;;;;;;;;;;;;11.44;100.00;100182.19;5051386;28;794;-59
2023/10/30 02:21:17;;;;;;;;;;;;;;;11.36;100.00;100183.38;5066746;28;1294;-59
2023/10/30 02:23:43;;;;;;;;;;;;;;;11.29;100.00;100177.84;5053021;28;1221;-59
2023/10/30 02:26:10;;;;;;;;;;;;;;;11.23;100.00;100178.25;5055267;28;873;-59
2023/10/30 02:28:37;;;;;;;;;;;;;;;11.17;100.00;100181.81;5055022;28;865;-59
2023/10/30 02:31:03;;;;;;;;;;;;;;;11.06;100.00;100170.78;5055303;28;806;-59
2023/10/30 02:33:30;;;;;;;;;;;;;;;10.96;100.00;100177.09;5055015;28;830;-59
2023/10/30 02:35:57;;;;;;;;;;;;;;;10.87;100.00;100177.50;5054839;28;1977;-59
2023/10/30 02:38:23;;;;;;;;;;;;;;;10.82;100.00;100184.22;5053802;28;1278;-59
2023/10/30 02:40:50;;;;;;;;;;;;;;;10.76;100.00;100176.72;5054976;28;898;-59
2023/10/30 02:43:18;;;;;;;;;;;;;;;10.75;100.00;100175.13;5054899;28;822;-59
2023/10/30 02:45:45;;;;;;;;;;;;;;;10.70;100.00;100173.53;5070087;28;1179;-59
2023/10/30 02:48:11;;;;;;;;;;;;;;;10.74;100.00;100177.09;5054784;28;892;-59
2023/10/30 02:50:38;;;;;;;;;;;;;;;10.83;100.00;100171.97;5054685;28;862;-59
2023/10/30 02:53:04;;;;;;;;;;;;;;;10.78;100.00;100166.84;5070255;28;1225;-59
2023/10/30 02:55:31;;;;;;;;;;;;;;;10.80;100.00;100177.50;5054523;28;1945;-59
2023/10/30 02:57:57;;;;;;;;;;;;;;;10.73;100.00;100175.53;5054879;28;1007;-59
2023/10/30 03:00:24;;;;;;;;;;;;;;;10.73;100.00;100175.53;5054628;28;783;-59
2023/10/30 03:02:51;;;;;;;;;;;;;;;10.74;100.00;100174.34;5054660;28;917;-59
2023/10/30 03:05:17;;;;;;;;;;;;;;;10.77;100.00;100169.97;5054727;28;818;-59
2023/10/30 03:07:44;;;;;;;;;;;;;;;10.80;100.00;100172.75;5054575;28;845;-59
2023/10/30 03:10:11;;;;;;;;;;;;;;;10.88;100.00;100169.97;5054573;28;830;-59
2023/10/30 03:12:37;;;;;;;;;;;;;;;10.93;100.00;100177.91;5054468;28;852;-59
2023/10/30 03:15:03;;;;;;;;;;;;;;;10.95;100.00;100167.22;5054492;28;1890;-59
2023/10/30 03:17:30;;;;;;;;;;;;;;;10.92;100.00;100165.25;5054251;28;826;-59
2023/10/30 03:19:57;;;;;;;;;;;;;;;10.87;100.00;100171.19;5054130;28;933;-59
2023/10/30 03:22:23;;;;;;;;;;;;;;;10.77;100.00;100173.53;5054101;28;1153;-59
2023/10/30 03:24:50;;;;;;;;;;;;;;;10.70;100.00;100172.75;5054070;28;811;-59
2023/10/30 03:27:17;;;;;;;;;;;;;;;10.69;100.00;100171.97;5053922;28;866;-59
2023/10/30 03:29:43;;;;;;;;;;;;;;;10.69;100.00;100180.28;5053934;28;827;-59
2023/10/30 03:32:10;;;;;;;;;;;;;;;10.69;100.00;100171.97;5053890;28;841;-59
2023/10/30 03:34:36;;;;;;;;;;;;;;;10.71;100.00;100168.78;5053276;28;1969;-59
2023/10/30 03:37:03;;;;;;;;;;;;;;;10.64;100.00;100164.06;5053780;28;1011;-59
2023/10/30 03:39:30;;;;;;;;;;;;;;;10.58;100.00;100162.88;5069163;28;1147;-59
2023/10/30 03:41:56;;;;;;;;;;;;;;;10.57;100.00;100162.06;5053773;28;822;-59
2023/10/30 03:44:26;;;;;;;;;;;;;;;10.58;100.00;100168.41;5053650;28;853;-59
2023/10/30 03:46:52;;;;;;;;;;;;;;;10.58;100.00;100162.88;5053686;28;822;-59
2023/10/30 03:49:19;;;;;;;;;;;;;;;10.55;100.00;100166.44;5053718;28;862;-59
2023/10/30 03:51:45;;;;;;;;;;;;;;;10.52;100.00;100162.47;5053890;28;799;-59
2023/10/30 03:54:12;;;;;;;;;;;;;;;10.61;100.00;100157.34;5053447;28;1894;-59
2023/10/30 03:56:38;;;;;;;;;;;;;;;10.79;100.00;100160.09;5053456;28;794;-59
2023/10/30 03:59:05;;;;;;;;;;;;;;;10.86;100.00;100156.56;5053415;28;845;-59
2023/10/30 04:01:32;;;;;;;;;;;;;;;10.74;100.00;100157.75;5053586;28;824;-59
2023/10/30 04:03:58;;;;;;;;;;;;;;;10.71;100.00;100166.84;5053207;28;852;-59
2023/10/30 04:06:25;;;;;;;;;;;;;;;10.85;100.00;100163.28;5053275;28;856;-59
2023/10/30 04:08:52;;;;;;;;;;;;;;;10.80;100.00;100155.38;5053222;28;837;-59
2023/10/30 04:11:18;;;;;;;;;;;;;;;10.70;100.00;100164.47;5053148;28;911;-59
2023/10/30 04:13:45;;;;;;;;;;;;;;;10.69;100.00;100162.88;5053175;28;794;-59
2023/10/30 04:16:13;;;;;;;;;;;;;;;10.58;100.00;100160.91;5053180;28;1878;-59
2023/10/30 04:18:40;;;;;;;;;;;;;;;10.56;100.00;100160.50;5053098;28;822;-59
2023/10/30 04:21:07;;;;;;;;;;;;;;;10.52;100.00;100170.78;5053049;28;901;-59
2023/10/30 04:23:34;;;;;;;;;;;;;;;10.62;100.00;100163.66;5068143;28;1359;-59
2023/10/30 04:26:00;;;;;;;;;;;;;;;10.90;100.00;100159.31;5052911;28;861;-59
2023/10/30 04:28:26;;;;;;;;;;;;;;;11.06;100.00;100162.47;5052896;28;826;-59
2023/10/30 04:30:53;;;;;;;;;;;;;;;10.98;100.00;100164.44;5051506;28;862;-59
2023/10/30 04:33:19;;;;;;;;;;;;;;;10.92;100.00;100170.78;5052707;28;940;-59
2023/10/30 04:35:46;;;;;;;;;;;;;;;10.90;100.00;100167.63;5052633;28;1907;-59
2023/10/30 04:38:12;;;;;;;;;;;;;;;10.82;100.00;100170.38;5068052;28;858;-59
2023/10/30 04:40:39;;;;;;;;;;;;;;;10.88;100.00;100165.25;5052567;28;860;-59
2023/10/30 04:43:05;;;;;;;;;;;;;;;11.00;100.00;100167.59;5052530;28;806;-59
2023/10/30 04:45:32;;;;;;;;;;;;;;;11.08;100.00;100175.91;5052122;28;807;-59
2023/10/30 04:47:58;;;;;;;;;;;;;;;11.01;100.00;100171.97;5052432;28;900;-59
2023/10/30 04:50:25;;;;;;;;;;;;;;;10.97;100.00;100173.16;5052523;28;862;-59
2023/10/30 04:52:51;;;;;;;;;;;;;;;11.04;100.00;100170.38;5052487;28;838;-59
2023/10/30 04:55:18;;;;;;;;;;;;;;;11.11;100.00;100172.34;5052419;28;1893;-59
2023/10/30 04:57:45;;;;;;;;;;;;;;;11.10;100.00;100165.25;5052301;28;880;-59
2023/10/30 05:00:12;;;;;;;;;;;;;;;11.12;100.00;100174.72;5052289;28;905;-59
2023/10/30 05:02:38;;;;;;;;;;;;;;;11.18;100.00;100175.91;5052095;28;810;-59
2023/10/30 05:05:05;;;;;;;;;;;;;;;11.18;100.00;100177.84;5052192;28;818;-59
2023/10/30 05:07:32;;;;;;;;;;;;;;;11.17;100.00;100179.84;5052060;28;985;-59
2023/10/30 05:09:58;;;;;;;;;;;;;;;11.27;100.00;100183.00;5052151;28;790;-59
2023/10/30 05:12:37;;;;;;;;;;;;;;;11.45;100.00;100189.28;5052106;28;854;-59
2023/10/30 05:15:05;;;;;;;;;;;;;;;11.60;100.00;100184.50;5051883;28;1956;-59
2023/10/30 05:17:31;;;;;;;;;;;;;;;11.67;100.00;100187.25;5052032;28;889;-59
2023/10/30 05:19:58;;;;;;;;;;;;;;;11.71;100.00;100192.75;5052023;28;850;-59
2023/10/30 05:22:25;;;;;;;;;;;;;;;11.75;100.00;100201.84;5052035;28;1202;-59
2023/10/30 05:24:51;;;;;;;;;;;;;;;11.77;100.00;100188.41;5051872;28;886;-59
2023/10/30 05:27:18;;;;;;;;;;;;;;;11.79;100.00;100197.09;5051809;28;846;-59
2023/10/30 05:29:45;;;;;;;;;;;;;;;11.90;100.00;100205.38;5051919;28;873;-59
2023/10/30 05:32:11;;;;;;;;;;;;;;;11.97;100.00;100202.59;5051744;28;861;-59
2023/10/30 05:34:38;;;;;;;;;;;;;;;12.04;100.00;100202.56;5051730;28;1910;-59
2023/10/30 05:37:06;;;;;;;;;;;;;;;12.19;100.00;100208.84;5051728;28;876;-59
2023/10/30 05:39:33;;;;;;;;;;;;;;;12.35;100.00;100206.34;5051769;28;858;-59
2023/10/30 05:41:59;;;;;;;;;;;;;;;12.62;100.00;100214.13;5051684;28;860;-59
2023/10/30 05:44:25;;;;;;;;;;;;;;;12.86;100.00;100212.34;5051755;28;862;-59
2023/10/30 05:46:51;;;;;;;;;;;;;;;12.97;100.00;100220.59;5051806;28;859;-59
2023/10/30 05:49:27;;;;;;;;;;;;;;;13.06;100.00;100227.25;5050423;28;1509;-59
2023/10/30 05:51:54;;;;;;;;;;;;;;;13.24;100.00;100223.53;5051756;28;877;-60
2023/10/30 05:54:21;;;;;;;;;;;;;;;13.33;100.00;100223.09;5051716;28;1955;-60
2023/10/30 05:56:48;;;;;;;;;;;;;;;13.40;100.00;100231.34;5067655;28;1211;-59
2023/10/30 05:59:15;;;;;;;;;;;;;;;13.59;100.00;100230.78;5055662;28;818;-60
2023/10/30 06:01:41;;;;;;;;;;;;;;;13.69;100.00;100221.53;5055928;28;911;-60
2023/10/30 06:04:08;;;;;;;;;;;;;;;13.78;100.00;100228.56;5055773;28;837;-59
2023/10/30 06:06:33;;;;;;;;;;;;;;;13.92;100.00;100233.19;5055743;28;862;-58
2023/10/30 06:09:00;;;;;;;;;;;;;;;14.21;100.00;100228.88;5055404;28;854;-58
2023/10/30 06:11:27;;;;;;;;;;;;;;;14.59;100.00;100228.75;5055617;28;849;-58
2023/10/30 06:13:54;;;;;;;;;;;;;;;14.90;100.00;100239.84;5055329;28;826;-58
2023/10/30 06:16:21;;;;;;;;;;;;;;;15.09;99.89;100230.00;5055234;28;1882;-59
2023/10/30 06:18:48;;;;;;;;;;;;;;;15.36;97.23;100224.34;5055277;28;850;-58
2023/10/30 06:21:17;;;;;;;;;;;;;;;15.54;94.46;100228.81;5055370;28;1050;-58
2023/10/30 06:23:44;;;;;;;;;;;;;;;15.67;94.05;100232.53;5055148;28;1394;-58
2023/10/30 06:26:11;;;;;;;;;;;;;;;15.87;93.90;100235.38;5055435;28;897;-58
2023/10/30 06:28:38;;;;;;;;;;;;;;;16.11;93.01;100230.53;5055329;28;794;-58
2023/10/30 06:31:12;;;;;;;;;;;;;;;16.36;92.06;100241.13;5055211;28;875;-58
2023/10/30 06:33:39;;;;;;;;;;;;;;;16.94;89.64;100238.66;5055109;28;948;-58
2023/10/30 06:36:06;;;;;;;;;;;;;;;17.76;84.13;100238.53;5054881;28;2001;-57
2023/10/30 06:38:34;;;;;;;;;;;;;;;18.46;78.77;100241.75;5055060;28;826;-58
2023/10/30 06:41:00;;;;;;;;;;;;;;;19.17;72.63;100243.53;5054838;28;882;-58
2023/10/30 06:43:27;;;;;;;;;;;;;;;19.76;67.64;100247.53;5054813;28;841;-57
2023/10/30 06:46:02;;;;;;;;;;;;;;;20.43;62.44;100239.09;5054811;28;858;-57
2023/10/30 06:48:29;;;;;;;;;;;;;;;21.04;59.41;100242.28;5054813;28;857;-57
2023/10/30 06:50:56;;;;;;;;;;;;;;;21.49;57.42;100247.25;5070060;28;1306;-57
2023/10/30 06:53:23;;;;;;;;;;;;;;;21.85;54.67;100242.09;5054867;28;831;-57
2023/10/30 06:55:52;;;;;;;;;;;;;;;22.05;53.19;100241.63;5054626;28;1887;-57
2023/10/30 06:58:21;;;;;;;;;;;;;;;22.22;51.79;100238.00;5054570;28;912;-58
2023/10/30 07:00:47;;;;;;;;;;;;;;;22.39;50.30;100246.09;5054421;28;956;-57
2023/10/30 07:03:14;;;;;;;;;;;;;;;22.88;49.03;100241.38;5054373;28;869;-57
2023/10/30 07:05:42;;;;;;;;;;;;;;;23.08;47.64;100238.78;5054435;28;904;-58
2023/10/30 07:08:08;;;;;;;;;;;;;;;23.05;46.68;100242.56;5054018;28;832;-58
2023/10/30 07:10:35;;;;;;;;;;;;;;;22.90;47.28;100233.22;5053952;28;814;-58
2023/10/30 07:13:01;;;;;;;;;;;;;;;22.88;46.18;100235.75;5054523;28;815;-59
2023/10/30 07:15:28;;;;;;;;;;;;;;;22.84;46.28;100242.31;5054234;28;1950;-59
2023/10/30 07:17:55;;;;;;;;;;;;;;;22.90;45.11;100239.63;5054328;28;869;-59
2023/10/30 07:20:22;;;;;;;;;;;;;;;23.14;44.87;100233.28;5054135;28;854;-59
2023/10/30 07:22:47;;;;;;;;;;;;;;;23.38;44.48;100239.66;5053807;28;1336;-58
2023/10/30 07:25:14;;;;;;;;;;;;;;;23.58;43.90;100235.47;5054359;28;878;-58
2023/10/30 07:27:41;;;;;;;;;;;;;;;23.67;43.42;100237.44;5053886;28;842;-58
2023/10/30 07:30:10;;;;;;;;;;;;;;;23.87;43.03;100240.41;5053871;28;803;-58
2023/10/30 07:32:36;;;;;;;;;;;;;;;24.17;42.53;100235.56;5052591;28;1295;-58
2023/10/30 07:35:03;;;;;;;;;;;;;;;24.50;41.68;100236.66;5053774;28;1977;-58
2023/10/30 07:37:30;;;;;;;;;;;;;;;24.31;41.19;100242.50;5053836;28;890;-58
2023/10/30 07:39:57;;;;;;;;;;;;;;;24.34;41.65;100240.72;5052442;28;1211;-58
2023/10/30 07:42:23;;;;;;;;;;;;;;;24.38;41.71;100246.97;5053742;28;881;-58
2023/10/30 07:44:50;;;;;;;;;;;;;;;24.50;42.05;100240.28;5053604;28;858;-59
2023/10/30 07:47:17;;;;;;;;;;;;;;;24.50;41.82;100245.91;5053906;28;813;-58
2023/10/30 07:49:43;;;;;;;;;;;;;;;24.54;42.00;100235.19;5053552;28;826;-58
2023/10/30 07:52:10;;;;;;;;;;;;;;;24.63;41.69;100239.97;5068887;28;2289;-58
2023/10/30 07:54:37;;;;;;;;;;;;;;;24.30;42.16;100240.91;5053435;28;1937;-58
2023/10/30 07:57:04;;;;;;;;;;;;;;;24.19;41.78;100229.44;5053458;28;821;-58
2023/10/30 07:59:32;;;;;;;;;;;;;;;24.40;42.45;100239.56;5053262;28;861;-58
2023/10/30 08:02:00;;;;;;;;;;;;;;;24.57;41.76;100234.22;5053569;28;979;-58
2023/10/30 08:04:27;;;;;;;;;;;;;;;24.62;42.06;100236.34;5053308;28;936;-58
2023/10/30 08:06:53;;;;;;;;;;;;;;;24.59;41.93;100234.50;5053192;28;1087;-58
2023/10/30 08:09:20;;;;;;;;;;;;;;;24.30;42.65;100234.50;5053282;28;846;-58
2023/10/30 08:11:46;;;;;;;;;;;;;;;24.13;43.37;100231.38;5053161;28;830;-58
2023/10/30 08:14:13;;;;;;;;;;;;;;;24.13;44.18;100226.53;5053071;28;1886;-58
2023/10/30 08:16:39;;;;;;;;;;;;;;;24.35;44.07;100231.00;5053041;28;873;-58
2023/10/30 08:19:06;;;;;;;;;;;;;;;24.54;43.69;100228.78;5053060;28;838;-59
2023/10/30 08:21:32;;;;;;;;;;;;;;;24.76;43.63;100228.34;5053149;28;909;-58
2023/10/30 08:23:59;;;;;;;;;;;;;;;24.71;43.68;100224.16;5052712;28;1402;-58
2023/10/30 08:26:28;;;;;;;;;;;;;;;24.68;45.16;100232.81;5052872;28;850;-58
2023/10/30 08:28:54;;;;;;;;;;;;;;;24.68;45.98;100221.53;5052792;28;945;-58
2023/10/30 08:31:22;;;;;;;;;;;;;;;24.74;46.39;100226.00;5053112;28;815;-58
2023/10/30 08:33:49;;;;;;;;;;;;;;;24.84;46.78;100226.66;5052724;28;921;-57
2023/10/30 08:36:22;;;;;;;;;;;;;;;24.94;46.51;100221.63;5052609;28;1914;-58
2023/10/30 08:38:48;;;;;;;;;;;;;;;24.84;46.36;100224.59;5052672;28;889;-58
2023/10/30 08:41:19;;;;;;;;;;;;;;;24.72;47.07;100225.69;5052626;28;885;-58
2023/10/30 08:43:45;;;;;;;;;;;;;;;24.64;46.68;100222.53;5052566;28;854;-58
2023/10/30 08:46:21;;;;;;;;;;;;;;;24.63;47.51;100225.81;5068095;28;1562;-58
2023/10/30 08:48:48;;;;;;;;;;;;;;;24.74;45.73;100225.22;5034954;28;1311;-58
2023/10/30 09:22:16;;;;;;;;;;;;;;;25.60;40.98;100195.50;5614654;22;1679;-58
2023/10/30 09:24:43;;;;;;;;;;;;;;;25.74;40.93;100196.69;5012340;28;857;-58
2023/10/30 09:27:09;;;;;;;;;;;;;;;25.71;40.29;100191.22;5012309;28;819;-58
2023/10/30 09:29:36;;;;;;;;;;;;;;;25.72;39.76;100190.75;5012222;28;918;-58
2023/10/30 09:32:03;;;;;;;;;;;;;;;25.74;38.97;100195.91;5011926;28;861;-58
2023/10/30 09:34:30;;;;;;;;;;;;;;;25.81;39.00;100189.81;5012125;28;1914;-58
2023/10/30 09:36:58;;;;;;;;;;;;;;;25.83;38.90;100182.34;5012349;28;865;-58
2023/10/30 09:39:25;;;;;;;;;;;;;;;26.06;39.24;100174.88;4994572;28;1172;-58
2023/10/30 09:41:54;;;;;;;;;;;;;;;26.23;39.52;100188.41;5012124;28;842;-58
2023/10/30 09:44:21;;;;;;;;;;;;;;;26.31;38.28;100171.72;4994337;28;1358;-58
2023/10/30 09:46:48;;;;;;;;;;;;;;;26.42;38.17;100175.44;5012312;28;862;-58
2023/10/30 09:49:16;;;;;;;;;;;;;;;26.57;38.17;100166.81;5011996;28;907;-58
2023/10/30 09:51:45;;;;;;;;;;;;;;;26.52;38.55;100169.56;5012018;28;881;-58
2023/10/30 09:54:12;;;;;;;;;;;;;;;26.62;38.99;100168.88;5012000;28;802;-58
2023/10/30 09:56:40;;;;;;;;;;;;;;;26.60;38.42;100168.59;5012037;28;885;-58
2023/10/30 09:59:09;;;;;;;;;;;;;;;26.64;38.17;100157.03;5011918;28;877;-58
2023/10/30 10:01:36;;;;;;;;;;;;;;;26.69;37.89;100161.97;5012137;28;791;-58
2023/10/30 10:04:02;;;;;;;;;;;;;;;26.55;38.26;100169.34;5011907;28;865;-58
2023/10/30 10:06:28;;;;;;;;;;;;;;;26.54;38.25;100167.00;5011834;28;858;-58
2023/10/30 10:08:58;;;;;;;;;;;;;;;26.52;38.70;100159.00;5011908;28;850;-58
2023/10/30 10:11:30;;;;;;;;;;;;;;;26.76;38.80;100157.91;5011834;28;803;-58
2023/10/30 10:13:56;;;;;;;;;;;;;;;26.58;38.76;100159.84;5012163;28;1266;-58
2023/10/30 10:16:27;;;;;;;;;;;;;;;26.53;39.58;100157.72;5011806;28;1886;-58
2023/10/30 10:18:53;;;;;;;;;;;;;;;26.49;40.28;100151.50;5012048;28;783;-58
2023/10/30 10:21:22;;;;;;;;;;;;;;;26.73;38.95;100142.66;5011831;28;907;-58
2023/10/30 10:23:49;;;;;;;;;;;;;;;26.76;38.69;100144.50;5011542;28;1319;-58
2023/10/30 10:26:16;;;;;;;;;;;;;;;26.91;38.31;100143.50;5011700;28;828;-58
2023/10/30 10:28:44;;;;;;;;;;;;;;;26.88;37.81;100145.31;5011748;28;823;-58
2023/10/30 10:31:11;;;;;;;;;;;;;;;26.74;38.19;100135.72;5011709;28;855;-58
2023/10/30 10:33:37;;;;;;;;;;;;;;;26.72;38.08;100135.44;5011922;28;897;-58
2023/10/30 10:36:05;;;;;;;;;;;;;;;26.59;37.90;100146.47;5011569;28;1918;-58
2023/10/30 10:38:31;;;;;;;;;;;;;;;26.48;37.98;100147.91;5011643;28;842;-58
2023/10/30 10:40:59;;;;;;;;;;;;;;;26.61;36.83;100132.56;5011608;28;838;-58
2023/10/30 10:43:29;;;;;;;;;;;;;;;26.80;35.90;100136.53;5011513;28;879;-58
2023/10/30 10:45:56;;;;;;;;;;;;;;;26.82;35.61;100131.13;5015196;28;893;-58
2023/10/30 10:48:23;;;;;;;;;;;;;;;26.86;35.86;100128.03;5015038;28;807;-58
2023/10/30 10:50:57;;;;;;;;;;;;;;;26.97;35.51;100130.94;5014926;28;890;-57
2023/10/30 10:53:26;;;;;;;;;;;;;;;27.01;36.62;100128.63;5014950;28;870;-57
2023/10/30 10:55:55;;;;;;;;;;;;;;;27.09;37.42;100124.00;5014898;28;1894;-57
2023/10/30 10:58:30;;;;;;;;;;;;;;;27.19;36.45;100113.22;5015065;28;836;-57
2023/10/30 11:00:58;;;;;;;;;;;;;;;27.20;37.18;100120.44;5014854;28;918;-58
2023/10/30 11:03:27;;;;;;;;;;;;;;;27.05;38.48;100114.19;5014835;28;835;-58
2023/10/30 11:05:53;;;;;;;;;;;;;;;26.87;39.63;100113.34;4997080;28;1352;-58
2023/10/30 11:08:38;;;;;;;;;;;;;;;26.95;39.70;100107.97;5014718;28;874;-58
2023/10/30 11:11:23;;;;;;;;;;;;;;;26.92;39.31;100108.97;5014638;28;877;-58
2023/10/30 11:14:04;;;;;;;;;;;;;;;27.08;39.81;100104.69;5014676;28;881;-58
2023/10/30 11:16:36;;;;;;;;;;;;;;;27.11;40.02;100117.81;5014613;28;1889;-58
2023/10/30 11:19:02;;;;;;;;;;;;;;;27.14;40.21;100101.84;4997121;28;1296;-58
2023/10/30 11:21:29;;;;;;;;;;;;;;;27.06;39.85;100105.19;5014727;28;951;-58
2023/10/30 11:23:57;;;;;;;;;;;;;;;27.11;39.91;100097.19;5014213;28;1325;-58
2023/10/30 11:26:36;;;;;;;;;;;;;;;27.28;39.50;100095.97;5014533;28;1231;-58
2023/10/30 11:29:08;;;;;;;;;;;;;;;27.51;39.04;100089.59;5014366;28;899;-58
2023/10/30 11:31:53;;;;;;;;;;;;;;;27.63;38.30;100083.41;5014403;28;854;-59
2023/10/30 11:34:25;;;;;;;;;;;;;;;27.64;37.47;100087.78;5014246;28;1910;-59
2023/10/30 11:36:52;;;;;;;;;;;;;;;27.73;38.18;100086.00;4996630;28;1248;-59
2023/10/30 11:39:20;;;;;;;;;;;;;;;27.97;38.04;100079.81;5013998;28;881;-59
2023/10/30 11:41:49;;;;;;;;;;;;;;;28.02;37.24;100085.50;5014201;28;857;-59
2023/10/30 11:44:17;;;;;;;;;;;;;;;27.98;37.18;100076.47;5014116;28;902;-59
2023/10/30 11:46:47;;;;;;;;;;;;;;;27.83;37.14;100076.69;5014045;28;818;-59
2023/10/30 11:49:18;;;;;;;;;;;;;;;27.68;36.32;100076.94;5013901;28;842;-59
2023/10/30 11:51:46;;;;;;;;;;;;;;;27.72;35.76;100075.91;5013931;28;851;-59
2023/10/30 11:54:21;;;;;;;;;;;;;;;27.84;35.22;100078.22;5013791;28;783;-59
2023/10/30 11:56:48;;;;;;;;;;;;;;;27.90;35.67;100081.88;5013693;28;810;-59
2023/10/30 11:59:15;;;;;;;;;;;;;;;28.32;35.28;100075.66;4996130;28;2176;-59
2023/10/30 12:01:43;;;;;;;;;;;;;;;28.45;35.38;100075.88;5013590;28;838;-59
2023/10/30 12:04:09;;;;;;;;;;;;;;;28.42;35.93;100074.03;5013892;28;878;-59
2023/10/30 12:06:37;;;;;;;;;;;;;;;28.30;35.68;100064.78;5013621;28;878;-59
2023/10/30 12:09:04;;;;;;;;;;;;;;;28.01;36.09;100069.72;5013583;28;841;-58
2023/10/30 12:11:30;;;;;;;;;;;;;;;27.81;36.43;100067.91;5013431;28;835;-59
2023/10/30 12:13:58;;;;;;;;;;;;;;;27.80;35.90;100065.59;5013474;28;874;-58
2023/10/30 12:16:26;;;;;;;;;;;;;;;27.65;36.64;100055.28;5013385;28;1953;-58
2023/10/30 12:18:52;;;;;;;;;;;;;;;27.70;36.82;100056.56;5013236;28;1291;-58
2023/10/30 12:21:19;;;;;;;;;;;;;;;27.95;36.26;100066.13;5013574;28;1055;-59
2023/10/30 12:23:51;;;;;;;;;;;;;;;28.13;35.72;100055.53;5013146;28;1464;-58
2023/10/30 12:26:19;;;;;;;;;;;;;;;28.12;36.22;100056.81;5013242;28;814;-59
2023/10/30 12:28:45;;;;;;;;;;;;;;;27.90;36.74;100059.16;5013190;28;939;-58
2023/10/30 12:31:20;;;;;;;;;;;;;;;27.74;37.07;100059.94;4995452;28;2030;-59
2023/10/30 12:33:46;;;;;;;;;;;;;;;27.62;38.28;100059.13;4995564;28;1225;-59
2023/10/30 12:36:13;;;;;;;;;;;;;;;27.79;38.61;100061.97;5012972;28;1999;-59
2023/10/30 12:38:40;;;;;;;;;;;;;;;27.73;38.62;100060.44;5013090;28;830;-59
2023/10/30 12:41:07;;;;;;;;;;;;;;;27.53;39.05;100055.78;5013052;28;819;-59
2023/10/30 12:43:39;;;;;;;;;;;;;;;27.60;39.39;100061.72;5013219;28;815;-59
2023/10/30 12:46:06;;;;;;;;;;;;;;;27.81;39.15;100050.88;5012860;28;868;-58
2023/10/30 12:48:33;;;;;;;;;;;;;;;27.66;38.37;100045.47;5012722;28;934;-58
2023/10/30 12:50:59;;;;;;;;;;;;;;;27.61;37.58;100042.59;5012842;28;874;-59
2023/10/30 12:53:26;;;;;;;;;;;;;;;27.36;39.37;100053.69;5012771;28;791;-58
2023/10/30 12:55:52;;;;;;;;;;;;;;;26.98;40.25;100055.91;5012848;28;1890;-58
2023/10/30 12:58:20;;;;;;;;;;;;;;;26.94;40.73;100046.09;4994968;28;1410;-58
2023/10/30 13:00:47;;;;;;;;;;;;;;;27.05;39.66;100049.72;5012691;28;806;-59
2023/10/30 13:03:13;;;;;;;;;;;;;;;27.23;40.19;100042.06;5012635;28;930;-59
2023/10/30 13:05:40;;;;;;;;;;;;;;;27.44;38.46;100040.56;5012591;28;890;-58
2023/10/30 13:08:07;;;;;;;;;;;;;;;27.46;38.59;100043.66;5011851;28;888;-58
2023/10/30 13:10:32;;;;;;;;;;;;;;;27.37;38.17;100045.94;5012560;28;857;-59
2023/10/30 13:12:59;;;;;;;;;;;;;;;27.29;39.56;100040.03;5012462;28;834;-59
2023/10/30 13:15:25;;;;;;;;;;;;;;;26.95;38.42;100033.44;5012370;28;1898;-59
2023/10/30 13:17:52;;;;;;;;;;;;;;;26.72;38.92;100041.13;5012319;28;879;-59
2023/10/30 13:20:19;;;;;;;;;;;;;;;26.68;41.12;100036.47;5012442;28;823;-58
2023/10/30 13:22:45;;;;;;;;;;;;;;;26.49;39.93;100038.16;5012420;28;1219;-58
2023/10/30 13:25:14;;;;;;;;;;;;;;;26.31;39.76;100039.38;5012307;28;1072;-58